Time;durP1;ratioP1;P1;durP2;ratioP2;P2;SDS_P1;SDS_P2;PMS_P1;PMS_P2;Temp;Humidity;BMP_temperature;BMP_pressure;BME280_temperature;BME280_humidity;BME280_pressure;Samples;Min_cycle;Max_cycle;Signal;HPM_P1;HPM_P2
2023/08/08 00:01:29;;;;;;;4.03;1.90;;;14.40;99.90;;;;;;5094415;27;20201;-59
2023/08/08 00:03:55;;;;;;;5.33;2.20;;;14.30;99.90;;;;;;5102066;27;20250;-62
2023/08/08 00:06:20;;;;;;;2.20;2.00;;;14.30;99.90;;;;;;5097170;27;20193;-58
2023/08/08 00:08:45;;;;;;;3.07;1.77;;;14.30;99.90;;;;;;5101382;27;20229;-61
2023/08/08 00:11:11;;;;;;;3.67;2.03;;;14.30;99.90;;;;;;5103113;28;20219;-60
2023/08/08 00:13:36;;;;;;;4.97;2.17;;;14.30;99.90;;;;;;5104847;27;20204;-63
2023/08/08 00:16:02;;;;;;;3.73;2.10;;;14.20;99.90;;;;;;5103450;27;20274;-62
2023/08/08 00:18:28;;;;;;;3.13;1.70;;;14.10;99.90;;;;;;5101665;27;20251;-57
2023/08/08 00:20:53;;;;;;;3.77;1.67;;;14.00;99.90;;;;;;5089812;28;20302;-59
2023/08/08 00:23:19;;;;;;;5.77;2.13;;;14.10;99.90;;;;;;5097425;27;20232;-59
2023/08/08 00:25:49;;;;;;;3.70;2.20;;;14.10;99.90;;;;;;5102807;28;20227;-57
2023/08/08 00:28:15;;;;;;;4.27;1.67;;;13.90;99.90;;;;;;5101287;27;20361;-55
2023/08/08 00:30:40;;;;;;;2.87;2.13;;;13.80;99.90;;;;;;5097803;27;20311;-56
2023/08/08 00:33:06;;;;;;;1.93;1.63;;;13.90;99.90;;;;;;5100016;27;20210;-58
2023/08/08 00:35:31;;;;;;;4.70;1.93;;;13.80;99.90;;;;;;5091723;28;20677;-57
2023/08/08 00:37:57;;;;;;;3.80;2.03;;;13.80;99.90;;;;;;5089499;28;20217;-55
2023/08/08 00:40:22;;;;;;;4.50;2.10;;;13.80;99.90;;;;;;5099325;27;20196;-58
2023/08/08 00:42:48;;;;;;;3.17;1.63;;;13.80;99.90;;;;;;5097230;27;20228;-57
2023/08/08 00:45:13;;;;;;;5.80;2.23;;;13.70;99.90;;;;;;5088146;28;20733;-58
2023/08/08 00:47:39;;;;;;;3.73;1.43;;;13.80;99.90;;;;;;5098921;27;20213;-57
2023/08/08 00:50:05;;;;;;;2.97;1.67;;;13.80;99.90;;;;;;5099166;27;20195;-57
2023/08/08 00:52:31;;;;;;;4.43;1.40;;;13.80;99.90;;;;;;5100145;28;20188;-59
2023/08/08 00:54:59;;;;;;;3.13;2.23;;;13.70;99.90;;;;;;5093007;28;20192;-56
2023/08/08 00:57:26;;;;;;;1.87;1.60;;;13.90;99.90;;;;;;5094017;27;20262;-57
2023/08/08 00:59:51;;;;;;;5.43;1.90;;;13.80;99.90;;;;;;5099361;27;20189;-56
2023/08/08 01:02:17;;;;;;;2.90;1.93;;;13.70;99.90;;;;;;5091024;28;20219;-56
2023/08/08 01:04:43;;;;;;;4.57;1.83;;;13.80;99.90;;;;;;5095852;28;20191;-54
2023/08/08 01:07:32;;;;;;;3.60;1.97;;;13.80;99.90;;;;;;5097714;27;20188;-56
2023/08/08 01:10:26;;;;;;;3.10;1.83;;;13.70;99.90;;;;;;5092028;28;20175;-60
2023/08/08 01:12:56;;;;;;;2.60;1.70;;;13.70;99.90;;;;;;5092142;28;20589;-56
2023/08/08 01:15:22;;;;;;;4.30;2.03;;;13.70;99.90;;;;;;5094521;28;20189;-56
2023/08/08 01:17:48;;;;;;;8.77;2.03;;;13.80;99.90;;;;;;5096998;27;20289;-65
2023/08/08 01:20:16;;;;;;;6.03;2.30;;;13.80;99.90;;;;;;5094852;28;20220;-55
2023/08/08 01:23:08;;;;;;;5.17;2.13;;;13.90;99.90;;;;;;5101053;27;20331;-60
2023/08/08 01:25:34;;;;;;;3.17;2.13;;;13.80;99.90;;;;;;5096981;28;20765;-60
2023/08/08 01:27:59;;;;;;;2.67;1.80;;;13.50;99.90;;;;;;5109757;28;20204;-60
2023/08/08 01:30:25;;;;;;;4.67;2.30;;;13.60;99.90;;;;;;5107555;28;20256;-61
2023/08/08 01:32:50;;;;;;;3.33;1.47;;;13.60;99.90;;;;;;5093195;28;20248;-63
2023/08/08 01:35:16;;;;;;;3.60;1.83;;;13.60;99.90;;;;;;5087253;28;20387;-62
2023/08/08 01:37:48;;;;;;;2.10;1.60;;;13.70;99.90;;;;;;5089861;28;20239;-62
2023/08/08 01:40:16;;;;;;;3.73;2.27;;;13.70;99.90;;;;;;5089881;28;20187;-63
2023/08/08 01:42:46;;;;;;;4.97;1.90;;;13.50;99.90;;;;;;5112932;28;20200;-58
2023/08/08 01:45:12;;;;;;;2.30;1.80;;;13.50;99.90;;;;;;5094074;28;20850;-58
2023/08/08 01:47:37;;;;;;;2.63;1.50;;;13.60;99.90;;;;;;5096753;28;21433;-58
2023/08/08 01:50:03;;;;;;;2.27;1.93;;;13.60;99.90;;;;;;5106276;28;20272;-60
2023/08/08 01:52:28;;;;;;;2.27;1.73;;;13.70;99.90;;;;;;5097051;28;20289;-58
2023/08/08 01:54:54;;;;;;;3.13;1.83;;;13.80;99.90;;;;;;5101942;28;20198;-58
2023/08/08 01:57:19;;;;;;;5.50;1.80;;;13.70;99.90;;;;;;5108124;28;20218;-60
2023/08/08 01:59:45;;;;;;;3.27;1.80;;;13.70;99.90;;;;;;5099327;28;20228;-60
2023/08/08 02:02:11;;;;;;;2.23;1.83;;;13.80;99.90;;;;;;5095827;28;20229;-62
2023/08/08 02:04:36;;;;;;;1.53;1.43;;;13.90;99.90;;;;;;5092711;28;20655;-62
2023/08/08 02:07:02;;;;;;;3.77;2.40;;;13.90;99.90;;;;;;5088137;28;20189;-62
2023/08/08 02:09:27;;;;;;;2.03;1.83;;;13.80;99.90;;;;;;5093229;28;20645;-58
2023/08/08 02:11:53;;;;;;;3.37;1.83;;;13.70;99.90;;;;;;5103782;28;20196;-58
2023/08/08 02:14:19;;;;;;;1.93;1.80;;;13.80;99.90;;;;;;5086122;28;20182;-58
2023/08/08 02:16:44;;;;;;;1.53;1.40;;;13.80;99.90;;;;;;5086597;28;20640;-58
2023/08/08 02:19:10;;;;;;;5.27;1.63;;;13.80;99.90;;;;;;5095363;28;20800;-58
2023/08/08 02:21:35;;;;;;;5.90;1.73;;;13.80;99.90;;;;;;5094162;28;20200;-57
2023/08/08 02:24:01;;;;;;;3.00;1.83;;;13.80;99.90;;;;;;5091911;28;21090;-61
2023/08/08 02:26:26;;;;;;;3.93;1.67;;;13.80;99.90;;;;;;5104688;27;20232;-67
2023/08/08 02:28:52;;;;;;;1.53;1.27;;;13.80;99.90;;;;;;5102933;28;20185;-61
2023/08/08 02:31:20;;;;;;;4.67;1.40;;;13.80;99.90;;;;;;5108535;27;20572;-62
2023/08/08 02:33:50;;;;;;;3.13;1.70;;;13.60;99.90;;;;;;5100485;27;20193;-56
2023/08/08 02:36:17;;;;;;;1.67;1.57;;;13.60;99.90;;;;;;5089099;28;20195;-56
2023/08/08 02:38:43;;;;;;;2.60;1.70;;;13.50;99.90;;;;;;5088009;28;20716;-56
2023/08/08 02:41:08;;;;;;;5.70;2.03;;;13.40;99.90;;;;;;5101069;27;20201;-55
2023/08/08 02:43:34;;;;;;;2.03;1.57;;;13.40;99.90;;;;;;5101692;27;20253;-55
2023/08/08 02:45:59;;;;;;;3.20;1.93;;;13.30;99.90;;;;;;5098340;27;20198;-54
2023/08/08 02:48:25;;;;;;;3.23;1.60;;;13.30;99.90;;;;;;5102550;27;20219;-63
2023/08/08 02:50:50;;;;;;;3.40;2.10;;;13.40;99.90;;;;;;5095364;27;20212;-58
2023/08/08 02:53:16;;;;;;;4.20;2.03;;;13.40;99.90;;;;;;5087754;28;20263;-57
2023/08/08 02:55:41;;;;;;;1.97;1.80;;;13.30;99.90;;;;;;5117509;27;20189;-57
2023/08/08 02:58:07;;;;;;;3.00;1.70;;;13.30;99.90;;;;;;5109427;27;20889;-57
2023/08/08 03:00:32;;;;;;;2.63;1.50;;;13.20;99.90;;;;;;5096899;28;20199;-57
2023/08/08 03:02:58;;;;;;;7.47;1.90;;;13.20;99.90;;;;;;5098371;27;20994;-57
2023/08/08 03:05:23;;;;;;;3.53;2.07;;;13.20;99.90;;;;;;5083588;28;20628;-56
2023/08/08 03:07:49;;;;;;;6.67;2.57;;;13.10;99.90;;;;;;5099762;27;20211;-56
2023/08/08 03:10:15;;;;;;;2.40;1.60;;;13.10;99.90;;;;;;5100007;27;20621;-56
2023/08/08 03:12:41;;;;;;;3.70;1.93;;;13.20;99.90;;;;;;5099104;28;20195;-56
2023/08/08 03:15:07;;;;;;;4.73;2.17;;;13.20;99.90;;;;;;5106271;27;20186;-56
2023/08/08 03:17:33;;;;;;;4.67;2.27;;;13.10;99.90;;;;;;5090564;27;20269;-55
2023/08/08 03:19:58;;;;;;;2.67;2.43;;;13.00;99.90;;;;;;5097461;28;20913;-55
2023/08/08 03:22:24;;;;;;;4.47;2.50;;;13.00;99.90;;;;;;5095680;27;20277;-55
2023/08/08 03:24:49;;;;;;;4.60;2.13;;;13.10;99.90;;;;;;5097515;28;20601;-55
2023/08/08 03:27:15;;;;;;;2.57;2.30;;;13.10;99.90;;;;;;5091357;27;20641;-55
2023/08/08 03:29:40;;;;;;;3.80;1.80;;;13.20;99.90;;;;;;5093364;28;20183;-55
2023/08/08 03:32:06;;;;;;;2.97;2.03;;;13.20;99.90;;;;;;5106334;27;20200;-56
2023/08/08 03:34:32;;;;;;;2.87;1.87;;;13.20;99.90;;;;;;5095618;28;20186;-56
2023/08/08 03:36:57;;;;;;;4.50;2.23;;;13.10;99.90;;;;;;5099321;27;20208;-56
2023/08/08 03:39:23;;;;;;;3.20;1.90;;;13.10;99.90;;;;;;5083323;28;20181;-55
2023/08/08 03:41:48;;;;;;;3.63;2.10;;;13.10;99.90;;;;;;5102847;27;20300;-56
2023/08/08 03:44:14;;;;;;;5.47;2.80;;;13.20;99.90;;;;;;5091703;27;21150;-56
2023/08/08 03:46:39;;;;;;;3.10;1.90;;;13.20;99.90;;;;;;5103734;27;20279;-55
2023/08/08 03:49:05;;;;;;;3.57;2.20;;;13.20;99.90;;;;;;5092494;28;20207;-55
2023/08/08 03:51:30;;;;;;;3.77;2.23;;;13.10;99.90;;;;;;5108467;27;20202;-55
2023/08/08 03:53:56;;;;;;;6.53;2.23;;;13.20;99.90;;;;;;5098162;27;20227;-55
2023/08/08 03:56:21;;;;;;;3.20;2.30;;;13.20;99.90;;;;;;5096889;27;20202;-56
2023/08/08 03:58:47;;;;;;;2.23;1.73;;;13.20;99.90;;;;;;5091623;27;20290;-55
2023/08/08 04:01:12;;;;;;;2.63;2.43;;;13.20;99.90;;;;;;5113678;27;20213;-55
2023/08/08 04:03:38;;;;;;;5.43;2.00;;;13.30;99.90;;;;;;5092534;27;20814;-56
2023/08/08 04:06:03;;;;;;;4.40;2.50;;;13.30;99.90;;;;;;5091092;27;20187;-56
2023/08/08 04:08:29;;;;;;;4.43;1.87;;;13.20;99.90;;;;;;5098681;27;20194;-56
2023/08/08 04:10:55;;;;;;;3.73;1.83;;;13.30;99.90;;;;;;5096911;27;20211;-56
2023/08/08 04:13:20;;;;;;;5.57;2.10;;;13.40;99.90;;;;;;5101794;27;20258;-56
2023/08/08 04:15:46;;;;;;;2.23;2.03;;;13.40;99.90;;;;;;5103159;27;20192;-56
2023/08/08 04:18:11;;;;;;;5.63;2.10;;;13.30;99.90;;;;;;5101723;27;20255;-57
2023/08/08 04:20:36;;;;;;;6.80;3.03;;;13.40;99.90;;;;;;5106002;27;20651;-56
2023/08/08 04:23:02;;;;;;;4.77;2.10;;;13.30;99.90;;;;;;5097697;27;20196;-57
2023/08/08 04:25:28;;;;;;;3.10;2.00;;;13.30;99.90;;;;;;5103688;27;20227;-56
2023/08/08 04:27:53;;;;;;;3.07;2.13;;;13.40;99.90;;;;;;5108458;27;20218;-56
2023/08/08 04:30:19;;;;;;;1.80;1.70;;;13.30;99.90;;;;;;5094850;27;20201;-56
2023/08/08 04:32:45;;;;;;;4.57;2.23;;;13.20;99.90;;;;;;5105531;27;20206;-56
2023/08/08 04:35:11;;;;;;;3.40;2.00;;;13.30;99.90;;;;;;5106729;27;20209;-56
2023/08/08 04:37:36;;;;;;;4.70;2.30;;;13.50;99.90;;;;;;5112365;27;20199;-56
2023/08/08 04:40:02;;;;;;;9.13;2.57;;;13.50;99.90;;;;;;5089966;28;20181;-56
2023/08/08 04:42:27;;;;;;;3.33;2.20;;;13.40;99.90;;;;;;5083992;28;20299;-56
2023/08/08 04:44:53;;;;;;;3.10;2.17;;;13.30;99.90;;;;;;5087921;28;20187;-56
2023/08/08 04:47:19;;;;;;;2.40;2.13;;;13.40;99.90;;;;;;5102745;27;20250;-56
2023/08/08 04:49:44;;;;;;;4.60;2.57;;;13.50;99.90;;;;;;5086680;28;20872;-56
2023/08/08 04:52:10;;;;;;;2.27;2.03;;;13.50;99.90;;;;;;5104686;27;20306;-56
2023/08/08 04:54:35;;;;;;;1.87;1.77;;;13.50;99.90;;;;;;5098508;27;20192;-57
2023/08/08 04:57:01;;;;;;;3.60;2.53;;;13.50;99.90;;;;;;5086802;27;20649;-57
2023/08/08 04:59:26;;;;;;;5.10;2.13;;;13.60;99.90;;;;;;5096874;28;20191;-55
2023/08/08 05:01:51;;;;;;;6.53;2.50;;;13.50;99.90;;;;;;5101418;27;20193;-55
2023/08/08 05:04:17;;;;;;;3.90;2.23;;;13.60;99.90;;;;;;5098252;28;20254;-57
2023/08/08 05:06:43;;;;;;;4.53;2.33;;;13.60;99.90;;;;;;5097008;27;20220;-56
2023/08/08 05:09:09;;;;;;;3.33;2.07;;;13.70;99.90;;;;;;5094663;28;20193;-56
2023/08/08 05:11:35;;;;;;;2.87;1.70;;;13.60;99.90;;;;;;5092560;27;20208;-57
2023/08/08 05:14:01;;;;;;;2.47;1.70;;;13.70;99.90;;;;;;5089878;28;20211;-56
2023/08/08 05:16:26;;;;;;;2.80;2.17;;;13.70;99.90;;;;;;5088557;28;20193;-57
2023/08/08 05:18:51;;;;;;;3.33;2.17;;;13.70;99.90;;;;;;5093134;27;20884;-55
2023/08/08 05:21:17;;;;;;;2.97;1.93;;;13.70;99.90;;;;;;5099859;27;20277;-57
2023/08/08 05:23:42;;;;;;;4.33;2.63;;;13.80;99.90;;;;;;5095433;28;20201;-56
2023/08/08 05:26:08;;;;;;;3.57;2.40;;;13.80;99.90;;;;;;5103698;28;20653;-56
2023/08/08 05:28:34;;;;;;;5.23;2.13;;;13.80;99.90;;;;;;5091468;28;20225;-57
2023/08/08 05:30:59;;;;;;;3.77;2.20;;;13.90;99.90;;;;;;5097744;28;20443;-56
2023/08/08 05:33:25;;;;;;;4.87;2.40;;;14.00;99.90;;;;;;5092404;28;20196;-57
2023/08/08 05:35:50;;;;;;;2.87;2.57;;;14.00;99.90;;;;;;5099182;28;21095;-56
2023/08/08 05:38:16;;;;;;;3.93;2.20;;;14.10;99.90;;;;;;5095379;28;20200;-58
2023/08/08 05:40:41;;;;;;;2.67;1.87;;;14.20;99.90;;;;;;5101899;28;20341;-57
2023/08/08 05:43:08;;;;;;;10.47;2.63;;;14.20;99.90;;;;;;5112536;28;20274;-58
2023/08/08 05:45:33;;;;;;;4.20;2.07;;;14.40;99.90;;;;;;5100886;28;20259;-55
2023/08/08 05:48:00;;;;;;;4.10;2.00;;;14.40;99.90;;;;;;5089060;28;20729;-55
2023/08/08 05:50:27;;;;;;;2.60;2.20;;;14.60;99.90;;;;;;5094506;28;20199;-57
2023/08/08 05:52:53;;;;;;;3.70;1.80;;;14.50;99.90;;;;;;5094735;28;20205;-55
2023/08/08 05:55:18;;;;;;;2.60;1.90;;;14.60;99.90;;;;;;5091026;28;20192;-57
2023/08/08 05:57:44;;;;;;;4.10;2.17;;;14.60;99.90;;;;;;5101133;27;20679;-57
2023/08/08 06:00:11;;;;;;;3.47;2.13;;;14.50;99.90;;;;;;5110984;27;20804;-56
2023/08/08 06:02:37;;;;;;;2.97;2.10;;;14.60;99.90;;;;;;5114190;27;20223;-56
2023/08/08 06:05:04;;;;;;;3.57;2.27;;;14.60;99.90;;;;;;5096775;28;20478;-56
2023/08/08 06:07:29;;;;;;;2.87;2.50;;;14.70;99.90;;;;;;5100380;27;20259;-57
2023/08/08 06:09:55;;;;;;;6.03;2.27;;;14.80;99.90;;;;;;5090733;28;20236;-55
2023/08/08 06:12:20;;;;;;;6.07;2.73;;;14.60;99.90;;;;;;5106806;27;20603;-59
2023/08/08 06:14:46;;;;;;;3.67;2.30;;;14.60;99.90;;;;;;5095399;28;20227;-60
2023/08/08 06:17:11;;;;;;;4.03;2.37;;;14.70;99.90;;;;;;5098956;27;20208;-58
2023/08/08 06:19:37;;;;;;;3.40;2.23;;;14.90;99.90;;;;;;5093742;28;20205;-58
2023/08/08 06:22:03;;;;;;;3.10;2.33;;;15.00;99.90;;;;;;5100744;27;20694;-56
2023/08/08 06:24:28;;;;;;;7.13;2.37;;;15.10;99.90;;;;;;5110177;27;20275;-56
2023/08/08 06:26:54;;;;;;;4.20;2.27;;;15.30;99.90;;;;;;5098657;27;20237;-56
2023/08/08 06:29:19;;;;;;;2.47;2.00;;;15.40;99.90;;;;;;5099553;27;20182;-57
2023/08/08 06:31:45;;;;;;;2.57;2.17;;;15.30;99.90;;;;;;5110671;27;20249;-57
2023/08/08 06:34:10;;;;;;;4.10;1.97;;;15.30;99.90;;;;;;5088551;28;20254;-57
2023/08/08 06:36:36;;;;;;;3.03;2.40;;;15.40;99.90;;;;;;5109563;27;21177;-57
2023/08/08 06:39:02;;;;;;;5.50;2.77;;;15.20;99.90;;;;;;5086702;27;20213;-57
2023/08/08 06:41:27;;;;;;;5.47;2.33;;;15.20;99.90;;;;;;5099872;27;20212;-54
2023/08/08 06:43:53;;;;;;;2.77;2.00;;;15.20;99.90;;;;;;5084924;27;20201;-56
2023/08/08 06:46:20;;;;;;;4.23;2.00;;;15.30;99.90;;;;;;5102936;27;20196;-58
2023/08/08 06:48:46;;;;;;;3.50;2.00;;;15.40;99.90;;;;;;5104379;27;20898;-58
2023/08/08 06:51:12;;;;;;;2.70;2.50;;;15.30;99.90;;;;;;5100502;27;20277;-59
2023/08/08 06:53:37;;;;;;;2.00;1.90;;;15.20;99.90;;;;;;5101044;27;20390;-56
2023/08/08 06:56:03;;;;;;;3.87;1.93;;;15.00;99.90;;;;;;5107607;27;20265;-60
2023/08/08 06:58:29;;;;;;;6.90;2.30;;;15.10;99.90;;;;;;5099014;27;20208;-58
2023/08/08 07:00:54;;;;;;;3.27;1.80;;;15.30;99.90;;;;;;5105456;27;20193;-58
2023/08/08 07:03:19;;;;;;;2.47;2.27;;;15.40;99.90;;;;;;5101594;27;20198;-58
2023/08/08 07:05:47;;;;;;;3.13;2.40;;;15.50;99.90;;;;;;5105683;27;20192;-60
2023/08/08 07:08:12;;;;;;;2.80;1.87;;;15.60;99.90;;;;;;5093863;27;20237;-63
2023/08/08 07:10:38;;;;;;;2.80;2.27;;;15.70;99.90;;;;;;5098807;27;20635;-62
2023/08/08 07:13:04;;;;;;;2.50;2.30;;;15.70;99.90;;;;;;5091133;28;20575;-62
2023/08/08 07:15:30;;;;;;;2.90;2.10;;;15.80;99.90;;;;;;5092455;28;20682;-61
2023/08/08 07:17:56;;;;;;;6.23;2.57;;;15.90;99.90;;;;;;5092422;27;20208;-59
2023/08/08 07:20:22;;;;;;;5.93;2.10;;;15.80;99.90;;;;;;5095857;27;20615;-61
2023/08/08 07:22:48;;;;;;;4.77;2.10;;;15.90;99.90;;;;;;5107846;27;20204;-61
2023/08/08 07:25:13;;;;;;;2.17;1.63;;;15.90;99.90;;;;;;5099126;27;20664;-60
2023/08/08 07:27:39;;;;;;;2.47;1.87;;;15.80;99.90;;;;;;5087875;27;20217;-64
2023/08/08 07:30:06;;;;;;;4.67;2.57;;;15.90;99.90;;;;;;5093311;28;20660;-59
2023/08/08 07:32:32;;;;;;;2.97;2.73;;;16.00;99.90;;;;;;5088484;27;20550;-54
2023/08/08 07:34:57;;;;;;;2.97;2.60;;;15.90;99.90;;;;;;5094035;28;20640;-54
2023/08/08 07:37:23;;;;;;;3.03;1.90;;;16.00;99.90;;;;;;5093789;27;20726;-53
2023/08/08 07:39:51;;;;;;;2.20;2.00;;;16.10;99.90;;;;;;5094524;28;20271;-56
2023/08/08 07:42:16;;;;;;;3.20;2.10;;;16.20;99.90;;;;;;5093353;28;20189;-61
2023/08/08 07:44:42;;;;;;;2.33;1.53;;;16.20;99.90;;;;;;5084668;28;20377;-60
2023/08/08 07:47:08;;;;;;;5.97;2.53;;;16.20;99.90;;;;;;5086186;27;20629;-56
2023/08/08 07:49:33;;;;;;;7.13;2.60;;;16.20;99.90;;;;;;5094860;28;20611;-58
2023/08/08 07:51:58;;;;;;;2.57;2.37;;;16.30;99.90;;;;;;5097129;27;20185;-57
2023/08/08 07:54:24;;;;;;;3.33;2.07;;;16.30;99.90;;;;;;5088945;28;20742;-57
2023/08/08 07:56:50;;;;;;;2.73;2.40;;;16.50;99.90;;;;;;5086686;27;20225;-57
2023/08/08 07:59:16;;;;;;;3.57;2.23;;;16.40;99.90;;;;;;5091848;28;20190;-64
2023/08/08 08:01:41;;;;;;;3.50;1.73;;;16.50;99.90;;;;;;5093837;27;20542;-59
2023/08/08 08:04:07;;;;;;;2.83;2.40;;;16.50;99.90;;;;;;5088904;22;20233;-59
2023/08/08 08:06:32;;;;;;;3.17;2.13;;;16.50;99.90;;;;;;5073649;28;20706;-60
2023/08/08 08:08:58;;;;;;;2.73;2.33;;;16.40;99.90;;;;;;5097932;28;20192;-60
2023/08/08 08:11:24;;;;;;;2.03;1.83;;;16.50;99.90;;;;;;5107482;27;20200;-60
2023/08/08 08:13:49;;;;;;;2.10;1.90;;;16.50;99.90;;;;;;5097046;27;20177;-59
2023/08/08 08:16:15;;;;;;;2.23;2.03;;;16.50;99.90;;;;;;5101254;27;20205;-59
2023/08/08 08:18:40;;;;;;;3.80;2.00;;;16.60;99.90;;;;;;5095568;28;20257;-55
2023/08/08 08:21:06;;;;;;;2.00;1.90;;;16.70;99.90;;;;;;5093939;27;20318;-56
2023/08/08 08:23:32;;;;;;;2.03;1.70;;;16.80;99.90;;;;;;5095164;28;20772;-56
2023/08/08 08:25:58;;;;;;;2.00;1.90;;;16.80;99.90;;;;;;5111628;27;20919;-55
2023/08/08 08:28:23;;;;;;;2.93;2.10;;;16.90;99.90;;;;;;5082584;28;20299;-57
2023/08/08 08:30:49;;;;;;;3.67;1.70;;;16.90;99.90;;;;;;5092934;27;20217;-57
2023/08/08 08:33:15;;;;;;;3.87;2.20;;;17.00;99.90;;;;;;5086441;27;20205;-57
2023/08/08 08:35:40;;;;;;;2.20;2.00;;;17.00;99.90;;;;;;5097254;27;20181;-56
2023/08/08 08:38:06;;;;;;;3.73;1.80;;;17.10;99.90;;;;;;5094864;27;20196;-59
2023/08/08 08:40:37;;;;;;;3.30;2.07;;;17.20;99.90;;;;;;5094532;27;20268;-57
2023/08/08 08:43:04;;;;;;;5.60;2.40;;;17.20;99.90;;;;;;5094668;28;20192;-59
2023/08/08 08:45:30;;;;;;;2.10;1.80;;;17.10;99.90;;;;;;5099344;27;20215;-59
2023/08/08 08:47:59;;;;;;;3.60;1.77;;;17.00;99.90;;;;;;5088630;27;20216;-59
2023/08/08 08:50:27;;;;;;;5.10;1.60;;;17.10;99.90;;;;;;5103079;27;20285;-59
2023/08/08 08:52:55;;;;;;;3.20;1.70;;;16.90;99.90;;;;;;5092983;28;20207;-59
2023/08/08 08:55:21;;;;;;;3.23;2.17;;;17.00;99.90;;;;;;5097160;27;20348;-60
2023/08/08 08:57:47;;;;;;;3.73;2.20;;;17.10;99.90;;;;;;5089343;27;20941;-60
2023/08/08 09:00:13;;;;;;;2.40;2.20;;;17.20;99.90;;;;;;5097771;28;20196;-64
2023/08/08 09:02:38;;;;;;;5.10;1.87;;;17.20;99.90;;;;;;5100831;27;20579;-68
2023/08/08 09:05:05;;;;;;;3.17;2.17;;;17.30;99.90;;;;;;5097529;27;20251;-64
2023/08/08 09:07:32;;;;;;;1.83;1.73;;;17.40;99.90;;;;;;5099597;27;20209;-64
2023/08/08 09:09:58;;;;;;;3.33;1.90;;;17.40;99.90;;;;;;5106617;27;20276;-65
2023/08/08 09:12:24;;;;;;;2.87;1.87;;;17.50;99.90;;;;;;5109577;27;20321;-63
2023/08/08 09:14:55;;;;;;;2.33;1.87;;;17.40;99.90;;;;;;5097471;27;20189;-55
2023/08/08 09:17:20;;;;;;;3.83;2.30;;;17.40;99.90;;;;;;5097041;27;20203;-56
2023/08/08 09:19:46;;;;;;;2.53;1.53;;;17.40;99.90;;;;;;5091595;28;20185;-56
2023/08/08 09:22:13;;;;;;;2.90;1.90;;;17.50;99.90;;;;;;5097471;27;20209;-57
2023/08/08 09:24:42;;;;;;;5.70;2.00;;;17.50;99.90;;;;;;5102245;27;20253;-63
2023/08/08 09:27:09;;;;;;;4.83;2.00;;;17.50;99.90;;;;;;5117215;28;20260;-63
2023/08/08 09:29:36;;;;;;;1.90;1.80;;;17.50;99.90;;;;;;5090921;28;20227;-61
2023/08/08 09:32:05;;;;;;;1.53;1.43;;;17.60;99.90;;;;;;5100935;28;20686;-61
2023/08/08 09:34:32;;;;;;;2.37;1.80;;;17.70;99.90;;;;;;5097751;28;20188;-58
2023/08/08 09:36:57;;;;;;;5.60;2.37;;;17.80;99.90;;;;;;5102966;28;20192;-65
2023/08/08 09:39:23;;;;;;;5.43;2.80;;;17.70;99.90;;;;;;5095369;28;20596;-58
2023/08/08 09:41:50;;;;;;;2.17;1.97;;;18.00;99.90;;;;;;5092938;28;20196;-64
2023/08/08 09:44:15;;;;;;;5.07;2.30;;;18.20;99.90;;;;;;5090132;28;20268;-56
2023/08/08 09:46:41;;;;;;;5.40;2.10;;;18.20;99.90;;;;;;5090411;28;20711;-63
2023/08/08 09:49:09;;;;;;;4.17;1.83;;;18.30;99.90;;;;;;5094876;28;20187;-53
2023/08/08 09:51:35;;;;;;;2.63;2.13;;;18.30;99.90;;;;;;5094772;28;20215;-55
2023/08/08 09:54:01;;;;;;;5.20;2.60;;;18.10;99.90;;;;;;5097515;28;20601;-55
2023/08/08 09:56:27;;;;;;;4.50;2.63;;;17.70;99.90;;;;;;5096700;28;20185;-56
2023/08/08 09:58:53;;;;;;;2.70;2.27;;;17.40;99.90;;;;;;5098697;27;20185;-58
2023/08/08 10:01:21;;;;;;;3.17;2.57;;;17.20;99.90;;;;;;5095713;28;20689;-55
2023/08/08 10:03:51;;;;;;;3.60;2.20;;;17.10;99.90;;;;;;5098166;28;20219;-57
2023/08/08 10:06:16;;;;;;;2.60;2.33;;;17.10;99.90;;;;;;5098048;28;20553;-55
2023/08/08 10:08:42;;;;;;;3.00;2.27;;;17.10;99.90;;;;;;5099056;28;20806;-56
2023/08/08 10:11:10;;;;;;;4.40;2.43;;;17.20;99.90;;;;;;5101523;28;20185;-57
2023/08/08 10:13:36;;;;;;;3.23;2.47;;;17.20;99.90;;;;;;5098487;28;20173;-61
2023/08/08 10:16:08;;;;;;;4.80;2.27;;;17.20;99.90;;;;;;5099585;28;20557;-57
2023/08/08 10:18:35;;;;;;;6.40;2.43;;;17.10;99.90;;;;;;5100659;28;20676;-61
2023/08/08 10:21:03;;;;;;;5.13;2.47;;;17.20;99.90;;;;;;5100666;28;20619;-55
2023/08/08 10:23:39;;;;;;;2.60;2.10;;;17.20;99.90;;;;;;5096236;28;20197;-62
2023/08/08 10:26:05;;;;;;;2.83;2.37;;;17.20;99.90;;;;;;5095795;28;20195;-65
2023/08/08 10:28:32;;;;;;;3.73;2.00;;;17.30;99.90;;;;;;5099136;28;20304;-64
2023/08/08 10:31:01;;;;;;;2.23;2.13;;;17.50;99.90;;;;;;5087319;28;20920;-58
2023/08/08 10:33:28;;;;;;;3.00;2.00;;;17.60;99.90;;;;;;5092598;28;20197;-58
2023/08/08 10:36:01;;;;;;;4.17;2.00;;;17.90;99.90;;;;;;5111958;28;20763;-65
2023/08/08 10:38:39;;;;;;;4.20;2.73;;;18.10;99.90;;;;;;5088491;28;20200;-63
2023/08/08 10:41:04;;;;;;;4.70;1.80;;;18.20;99.90;;;;;;5083032;28;20486;-66
2023/08/08 10:43:30;;;;;;;4.30;1.87;;;18.10;99.90;;;;;;5086516;28;20691;-62
2023/08/08 10:46:03;;;;;;;4.60;1.50;;;18.00;99.90;;;;;;5098678;27;20208;-64
2023/08/08 10:48:29;;;;;;;3.33;1.67;;;17.60;99.90;;;;;;5085418;27;20643;-62
2023/08/08 10:50:59;;;;;;;3.30;2.10;;;17.60;99.90;;;;;;5104663;27;20184;-55
2023/08/08 10:53:30;;;;;;;3.37;1.77;;;17.70;99.90;;;;;;5102395;27;20248;-55
2023/08/08 10:56:01;;;;;;;2.33;1.73;;;17.70;99.90;;;;;;5105299;27;20211;-57
2023/08/08 10:58:37;;;;;;;3.97;2.57;;;17.80;99.90;;;;;;5101227;27;20561;-57
2023/08/08 11:01:07;;;;;;;3.80;1.70;;;17.70;99.90;;;;;;5101549;27;20180;-62
2023/08/08 11:03:34;;;;;;;2.17;1.43;;;17.80;99.90;;;;;;5094840;27;20217;-60
2023/08/08 11:06:00;;;;;;;2.00;1.47;;;17.80;99.90;;;;;;5117555;27;20228;-59
2023/08/08 11:08:25;;;;;;;3.30;1.63;;;18.10;99.90;;;;;;5105698;27;20244;-60
2023/08/08 11:10:54;;;;;;;3.23;1.80;;;18.50;99.90;;;;;;5103324;28;20500;-59
2023/08/08 11:13:19;;;;;;;2.50;1.60;;;18.50;99.90;;;;;;5100560;27;20254;-58
2023/08/08 11:15:45;;;;;;;5.67;1.63;;;18.80;99.90;;;;;;5101587;28;20186;-57
2023/08/08 11:18:11;;;;;;;2.27;1.90;;;19.20;99.90;;;;;;5098649;27;20206;-59
2023/08/08 11:20:36;;;;;;;4.67;1.63;;;19.00;99.90;;;;;;5096322;28;20197;-59
2023/08/08 11:23:05;;;;;;;1.47;1.30;;;19.00;99.90;;;;;;5104003;27;21261;-58
2023/08/08 11:25:31;;;;;;;4.30;1.20;;;18.80;99.90;;;;;;5099344;27;20200;-59
2023/08/08 11:27:58;;;;;;;2.30;1.37;;;18.60;99.90;;;;;;5092579;28;20208;-59
2023/08/08 11:30:33;;;;;;;0.50;0.50;;;18.50;99.60;;;;;;5105089;27;20293;-59
2023/08/08 11:32:59;;;;;;;1.53;1.43;;;18.10;99.90;;;;;;5096805;28;20702;-59
2023/08/08 11:35:26;;;;;;;1.50;1.27;;;17.70;99.90;;;;;;5100575;27;20280;-58
2023/08/08 11:37:53;;;;;;;4.23;1.10;;;17.80;99.90;;;;;;5099174;27;20670;-56
2023/08/08 11:40:20;;;;;;;1.20;1.10;;;17.90;99.90;;;;;;5104351;27;20312;-56
2023/08/08 11:42:46;;;;;;;1.90;1.40;;;17.80;99.90;;;;;;5103237;27;20188;-57
2023/08/08 11:45:12;;;;;;;2.90;1.47;;;18.20;99.90;;;;;;5094620;28;20210;-56
2023/08/08 11:47:39;;;;;;;1.53;1.43;;;18.80;99.90;;;;;;5098169;27;20206;-56
2023/08/08 11:50:07;;;;;;;1.50;1.40;;;19.10;99.90;;;;;;5118243;27;20690;-56
2023/08/08 11:52:41;;;;;;;1.50;1.40;;;19.90;99.90;;;;;;5091648;27;20886;-55
2023/08/08 11:55:10;;;;;;;3.20;1.90;;;20.00;99.90;;;;;;5090169;28;20203;-55
2023/08/08 11:57:40;;;;;;;1.87;1.77;;;19.90;99.90;;;;;;5087776;28;20657;-59
2023/08/08 12:00:12;;;;;;;2.07;1.90;;;20.00;99.90;;;;;;5106821;27;20569;-56
2023/08/08 12:02:44;;;;;;;1.90;1.80;;;20.40;99.90;;;;;;5098126;27;20192;-55
2023/08/08 12:05:12;;;;;;;1.60;1.50;;;20.80;99.90;;;;;;5104343;27;20210;-56
2023/08/08 12:07:41;;;;;;;2.97;1.93;;;20.90;99.80;;;;;;5101713;27;20800;-59
2023/08/08 12:10:16;;;;;;;1.60;1.50;;;21.00;99.90;;;;;;5099798;27;20203;-59
2023/08/08 12:12:41;;;;;;;2.47;2.17;;;20.70;99.90;;;;;;5100882;28;20271;-59
2023/08/08 12:15:11;;;;;;;1.70;1.60;;;21.00;99.60;;;;;;5100688;27;20289;-59
2023/08/08 12:17:37;;;;;;;3.23;2.10;;;21.40;99.00;;;;;;5129115;22;20201;-59
2023/08/08 12:20:07;;;;;;;2.93;2.17;;;21.40;99.90;;;;;;5108769;22;20242;-58
2023/08/08 12:22:33;;;;;;;2.47;2.23;;;22.10;97.60;;;;;;5092680;28;20265;-58
2023/08/08 12:24:58;;;;;;;1.87;1.53;;;22.30;97.40;;;;;;5081739;28;20345;-58
2023/08/08 12:27:24;;;;;;;3.23;1.87;;;22.40;96.40;;;;;;5101759;27;20296;-59
2023/08/08 12:29:49;;;;;;;1.93;1.80;;;22.60;96.70;;;;;;5097369;28;20181;-59
2023/08/08 12:32:15;;;;;;;2.73;2.10;;;22.70;95.20;;;;;;5103472;27;20239;-59
2023/08/08 12:34:40;;;;;;;5.07;2.27;;;22.40;95.20;;;;;;5084346;28;20184;-62
2023/08/08 12:37:06;;;;;;;6.33;2.53;;;21.50;96.30;;;;;;5093009;27;20222;-56
2023/08/08 12:39:31;;;;;;;5.40;2.50;;;21.30;97.00;;;;;;5101894;28;20196;-54
2023/08/08 12:41:57;;;;;;;4.23;2.57;;;20.80;97.80;;;;;;5098900;28;20202;-53
2023/08/08 12:44:23;;;;;;;2.47;2.27;;;20.20;99.10;;;;;;5098689;28;20188;-58